aviador You're here:

KCKV Decoded Metar

CLARKSVILLE in TN, USA
Report Time2017-06-23 22:14:00
UTC Time2017-06-23 22:31:13
Flight Rules mvfr MVFR
Wind280° at 12 Gusting to 23 kt
W.Decomp.*RWY 23: 7.6 kt HW 9.3 kt RCW
RWY 35: 4.3 kt HW 11.2 kt LCW
W.Rank280° ranks 21
Current wind is above 280° avg. (7.2)
Visibility9999 m
Phenomena:N/A
Clouds:Scattered 019 Hf
Broken 023 Hf
Broken 055 Hf
Expected CloudBase > 2,000 ft AGL from Temp-Dew spread
Ceiling2,300 ft
Temp27°C (ISA +13)
Dew Point22°C (74% RH)
Heat Index29.2°C
QNH1007 hPa
Density Alt2,602 ft
Elevation541 ft
Report Wrong Elevation
Raw Report
KCKV 232214Z AUTO 28012G23KT 10SM SCT019 BKN023 BKN055 27/22 A2974
RMK AO2 T02670222=

Extra information for KCKV:More info

Metar Taf Metar & Taf Last 4 Metars F.Rules Stats Wind Profile Meteogram Temp Stats Airport Information Weather charts Add Link Nearby VenuesMetar ALERT Operation Metar Decoded Social comments

AIRNAV info for KCKV